Time;durP1;ratioP1;P1;durP2;ratioP2;P2;SDS_P1;SDS_P2;PMS_P1;PMS_P2;Temp;Humidity;BMP_temperature;BMP_pressure;BME280_temperature;BME280_humidity;BME280_pressure;Samples;Min_cycle;Max_cycle;Signal;HPM_P1;HPM_P2
2022/07/14 00:01:23;;;;;;;2.58;0.77;;;;;;;13.31;100.00;101469.25;5048389;28;20057;-47
2022/07/14 00:03:49;;;;;;;2.50;0.13;;;;;;;13.24;100.00;101470.13;5049566;28;20067;-50
2022/07/14 00:06:15;;;;;;;0.40;0.30;;;;;;;13.21;100.00;101468.66;5035344;28;20064;-49
2022/07/14 00:08:43;;;;;;;0.93;0.10;;;;;;;13.21;100.00;101458.00;5052007;28;20516;-51
2022/07/14 00:11:09;;;;;;;1.38;0.08;;;;;;;13.21;100.00;101468.66;5046530;28;20040;-51
2022/07/14 00:13:35;;;;;;;0.90;0.10;;;;;;;13.15;100.00;101466.75;5053132;28;20306;-51
2022/07/14 00:16:00;;;;;;;0.32;0.10;;;;;;;13.07;100.00;101467.66;5049352;28;20018;-52
2022/07/14 00:18:26;;;;;;;2.20;0.20;;;;;;;12.98;100.00;101459.94;5055244;28;20434;-49
2022/07/14 00:20:51;;;;;;;3.22;0.30;;;;;;;12.81;100.00;101462.78;5048643;28;20064;-49
2022/07/14 00:23:20;;;;;;;0.80;0.20;;;;;;;12.65;100.00;101457.63;5050530;28;20033;-52
2022/07/14 00:25:46;;;;;;;5.47;0.32;;;;;;;12.58;100.00;101462.84;5055218;28;20115;-51
2022/07/14 00:28:11;;;;;;;0.93;0.10;;;;;;;12.52;100.00;101468.03;5053112;28;20055;-53
2022/07/14 00:30:37;;;;;;;1.05;0.10;;;;;;;12.43;100.00;101464.63;5059434;28;20039;-51
2022/07/14 00:33:02;;;;;;;2.05;0.15;;;;;;;12.39;100.00;101458.84;5050999;28;20025;-51
2022/07/14 00:35:28;;;;;;;1.45;0.10;;;;;;;12.37;100.00;101463.50;5048662;28;20115;-53
2022/07/14 00:37:53;;;;;;;2.20;0.22;;;;;;;12.34;100.00;101466.53;5053255;28;20028;-51
2022/07/14 00:40:19;;;;;;;5.93;0.45;;;;;;;12.28;100.00;101466.41;5059197;28;20473;-51
2022/07/14 00:42:49;;;;;;;3.63;0.70;;;;;;;12.25;100.00;101470.25;5051854;28;20024;-50
2022/07/14 00:45:18;;;;;;;6.32;0.68;;;;;;;12.21;100.00;101466.31;5055171;28;20398;-51
2022/07/14 00:47:44;;;;;;;1.02;0.10;;;;;;;12.16;100.00;101471.34;5049243;28;20029;-49
2022/07/14 00:50:12;;;;;;;2.47;0.38;;;;;;;12.20;100.00;101468.13;5051565;28;20120;-51
2022/07/14 00:52:38;;;;;;;1.23;1.00;;;;;;;12.04;100.00;101470.91;5051803;28;20470;-52
2022/07/14 00:55:04;;;;;;;2.83;0.50;;;;;;;11.93;100.00;101477.44;5053358;28;20388;-49
2022/07/14 00:57:29;;;;;;;0.47;0.10;;;;;;;11.82;100.00;101472.47;5055078;28;20036;-50
2022/07/14 00:59:56;;;;;;;3.38;0.05;;;;;;;11.73;100.00;101470.88;5059838;28;20310;-53
2022/07/14 01:02:22;;;;;;;0.30;0.05;;;;;;;11.69;100.00;101474.88;5057454;28;20100;-51
2022/07/14 01:04:48;;;;;;;1.75;0.80;;;;;;;11.65;100.00;101479.72;5059266;28;20024;-51
2022/07/14 01:07:15;;;;;;;2.50;0.47;;;;;;;11.62;100.00;101469.47;5052168;28;20466;-53
2022/07/14 01:09:41;;;;;;;5.50;0.10;;;;;;;11.61;100.00;101459.00;5054397;28;20040;-51
2022/07/14 01:12:08;;;;;;;0.95;0.38;;;;;;;11.64;100.00;101458.63;5072515;28;20056;-46
2022/07/14 01:14:35;;;;;;;1.50;1.40;;;;;;;11.66;100.00;101464.63;5068169;28;20032;-47
2022/07/14 01:17:01;;;;;;;5.65;1.20;;;;;;;11.64;100.00;101464.81;5064221;28;20496;-49
2022/07/14 01:19:26;;;;;;;2.25;0.10;;;;;;;11.64;100.00;101455.97;5057230;28;20028;-49
2022/07/14 01:21:55;;;;;;;1.17;0.38;;;;;;;11.58;100.00;101470.78;5063126;28;20021;-46
2022/07/14 01:24:25;;;;;;;0.95;0.10;;;;;;;11.48;100.00;101470.16;5054065;28;20032;-50
2022/07/14 01:26:51;;;;;;;3.05;0.20;;;;;;;11.33;100.00;101478.03;5064012;28;20401;-46
2022/07/14 01:29:18;;;;;;;1.83;0.10;;;;;;;11.17;100.00;101475.44;5063532;28;20032;-46
2022/07/14 01:31:43;;;;;;;0.93;0.15;;;;;;;11.06;100.00;101471.31;5040138;28;21189;-53
2022/07/14 01:34:09;;;;;;;2.38;0.15;;;;;;;10.97;100.00;101474.97;5062528;28;20033;-51
2022/07/14 01:36:34;;;;;;;1.05;0.00;;;;;;;10.95;100.00;101475.16;5065278;28;20039;-50
2022/07/14 01:39:00;;;;;;;1.45;0.20;;;;;;;10.91;100.00;101468.53;5057641;28;20036;-48
2022/07/14 01:41:26;;;;;;;0.63;0.03;;;;;;;10.88;100.00;101468.88;5056744;28;20041;-47
2022/07/14 01:43:52;;;;;;;0.60;0.10;;;;;;;10.86;100.00;101460.25;5045906;28;20025;-49
2022/07/14 01:46:18;;;;;;;2.75;0.10;;;;;;;10.84;100.00;101464.88;5066390;28;20039;-53
2022/07/14 01:48:44;;;;;;;0.73;0.10;;;;;;;10.82;100.00;101459.78;5060569;28;20853;-51
2022/07/14 01:51:09;;;;;;;0.65;0.65;;;;;;;10.83;100.00;101463.25;5065962;28;20117;-48
2022/07/14 01:53:34;;;;;;;0.43;0.10;;;;;;;10.83;100.00;101465.91;5051535;28;20346;-47
2022/07/14 01:56:00;;;;;;;3.83;0.10;;;;;;;10.86;100.00;101462.91;5059309;28;20041;-49
2022/07/14 01:58:26;;;;;;;0.20;0.08;;;;;;;10.89;100.00;101470.50;5054011;28;20035;-50
2022/07/14 02:03:36;;;;;;;2.38;0.00;;;;;;;10.97;100.00;101462.56;5056668;28;20056;-50
2022/07/14 02:06:02;;;;;;;3.97;0.57;;;;;;;11.01;100.00;101463.88;5064714;28;20403;-51
2022/07/14 02:08:28;;;;;;;0.90;0.32;;;;;;;11.09;100.00;101470.97;5060018;28;20044;-49
2022/07/14 02:13:37;;;;;;;0.35;0.15;;;;;;;11.11;100.00;101469.81;5057815;28;20079;-51
2022/07/14 02:16:03;;;;;;;1.20;0.30;;;;;;;11.08;100.00;101464.84;5060869;28;20056;-49
2022/07/14 02:18:29;;;;;;;1.13;0.08;;;;;;;11.02;100.00;101464.69;5064508;28;20400;-53
2022/07/14 02:20:54;;;;;;;2.35;0.10;;;;;;;10.94;100.00;101470.00;5051120;28;20465;-49
2022/07/14 02:23:20;;;;;;;4.38;0.28;;;;;;;10.85;100.00;101470.03;5054595;28;20120;-48
2022/07/14 02:25:46;;;;;;;0.57;0.10;;;;;;;10.78;100.00;101462.91;5060174;28;20033;-49
2022/07/14 02:28:12;;;;;;;0.52;0.52;;;;;;;10.75;100.00;101463.25;5065640;28;20053;-51
2022/07/14 02:30:38;;;;;;;1.00;0.32;;;;;;;10.77;100.00;101467.41;5059122;28;20032;-47
2022/07/14 02:33:04;;;;;;;2.42;0.95;;;;;;;10.71;100.00;101465.41;5064214;28;20025;-46
2022/07/14 02:35:29;;;;;;;0.52;0.32;;;;;;;10.67;100.00;101466.75;5052560;28;20033;-48
2022/07/14 02:37:54;;;;;;;1.88;0.35;;;;;;;10.60;100.00;101465.75;5055666;28;20033;-52
2022/07/14 02:40:20;;;;;;;2.67;0.22;;;;;;;10.51;100.00;101474.69;5048204;28;20040;-46
2022/07/14 02:42:45;;;;;;;4.80;0.65;;;;;;;10.45;100.00;101474.41;5056000;28;20300;-49
2022/07/14 02:45:11;;;;;;;2.55;0.25;;;;;;;10.42;100.00;101487.13;5064724;28;20043;-49
2022/07/14 02:47:36;;;;;;;0.60;0.20;;;;;;;10.42;100.00;101487.97;5050646;28;20028;-48
2022/07/14 02:50:01;;;;;;;1.00;0.20;;;;;;;10.45;100.00;101490.31;5064421;28;20025;-48
2022/07/14 02:52:27;;;;;;;0.28;0.10;;;;;;;10.50;100.00;101484.47;5037335;28;20036;-47
2022/07/14 02:54:52;;;;;;;2.25;0.20;;;;;;;10.57;100.00;101493.44;5060536;28;20056;-50
2022/07/14 02:57:17;;;;;;;6.10;0.30;;;;;;;10.64;100.00;101494.44;5054812;28;20056;-49
2022/07/14 02:59:43;;;;;;;0.00;0.00;;;;;;;10.65;100.00;101490.78;5054429;28;20389;-49
2022/07/14 03:02:09;;;;;;;1.65;0.20;;;;;;;10.62;100.00;101491.13;5053360;28;20112;-49
2022/07/14 03:04:35;;;;;;;1.20;0.10;;;;;;;10.60;100.00;101495.75;5061426;28;20071;-48
2022/07/14 03:07:01;;;;;;;0.20;0.10;;;;;;;10.55;100.00;101490.13;5056149;28;20032;-47
2022/07/14 03:09:27;;;;;;;2.33;0.43;;;;;;;10.55;100.00;101484.81;5054183;28;20029;-52
2022/07/14 03:11:52;;;;;;;0.52;0.00;;;;;;;10.54;100.00;101490.31;5049427;28;20531;-48
2022/07/14 03:14:18;;;;;;;0.93;0.00;;;;;;;10.52;100.00;101490.47;5055303;28;20032;-50
2022/07/14 03:16:43;;;;;;;2.20;0.93;;;;;;;10.45;100.00;101477.03;5059395;28;20035;-51
2022/07/14 03:19:09;;;;;;;0.15;0.10;;;;;;;10.36;100.00;101483.31;5052134;28;21458;-50
2022/07/14 03:21:34;;;;;;;2.58;0.20;;;;;;;10.26;100.00;101495.88;5055578;28;20040;-50
2022/07/14 03:24:00;;;;;;;1.27;0.15;;;;;;;10.16;100.00;101506.63;5058350;28;20040;-49
2022/07/14 03:26:25;;;;;;;0.10;0.10;;;;;;;10.04;100.00;101502.63;5064695;28;20438;-47
2022/07/14 03:28:50;;;;;;;1.75;0.20;;;;;;;9.93;100.00;101506.41;5058271;28;20035;-48
2022/07/14 03:31:16;;;;;;;1.30;0.20;;;;;;;9.82;100.00;101499.59;5055142;28;20060;-49
2022/07/14 03:33:41;;;;;;;0.77;0.13;;;;;;;9.76;100.00;101502.06;5055720;28;20028;-49
2022/07/14 03:36:07;;;;;;;2.35;0.20;;;;;;;9.70;100.00;101514.13;5060658;28;20469;-50
2022/07/14 03:38:32;;;;;;;4.63;0.20;;;;;;;9.66;100.00;101509.31;5054633;28;20457;-47
2022/07/14 03:40:57;;;;;;;1.35;0.45;;;;;;;9.60;100.00;101518.72;5053540;28;20108;-50
2022/07/14 03:43:23;;;;;;;0.13;0.05;;;;;;;9.55;100.00;101513.91;5063531;28;20024;-51
2022/07/14 03:45:48;;;;;;;0.85;0.57;;;;;;;9.55;100.00;101519.22;5066421;28;20505;-50
2022/07/14 03:48:14;;;;;;;0.90;0.10;;;;;;;9.56;100.00;101523.50;5060067;28;20396;-51
2022/07/14 03:50:41;;;;;;;0.63;0.30;;;;;;;9.56;100.00;101515.56;5054336;28;20885;-50
2022/07/14 03:53:06;;;;;;;0.30;0.30;;;;;;;9.55;100.00;101516.56;5059871;28;20087;-51
2022/07/14 03:55:32;;;;;;;0.75;0.00;;;;;;;9.54;100.00;101508.75;5063254;28;20119;-49
2022/07/14 03:58:00;;;;;;;0.63;0.10;;;;;;;9.50;100.00;101512.72;5063864;28;20123;-48
2022/07/14 04:00:25;;;;;;;0.10;0.10;;;;;;;9.45;100.00;101517.66;5061924;28;20485;-47
2022/07/14 04:02:50;;;;;;;0.50;0.20;;;;;;;9.42;100.00;101521.44;5066111;28;20107;-50
2022/07/14 04:05:16;;;;;;;1.35;0.20;;;;;;;9.39;100.00;101519.94;5063622;28;20085;-50
2022/07/14 04:07:41;;;;;;;1.95;0.77;;;;;;;9.34;100.00;101516.09;5060694;28;20450;-49
2022/07/14 04:10:07;;;;;;;1.13;0.47;;;;;;;9.32;100.00;101523.38;5066375;28;20534;-50
2022/07/14 04:12:32;;;;;;;2.10;0.10;;;;;;;9.30;100.00;101535.94;5055887;28;20036;-48
2022/07/14 04:14:57;;;;;;;0.98;0.10;;;;;;;9.25;100.00;101528.47;5062202;28;20052;-49
2022/07/14 04:17:23;;;;;;;0.98;0.28;;;;;;;9.21;100.00;101531.59;5054205;28;20540;-47
2022/07/14 04:19:49;;;;;;;1.55;0.30;;;;;;;9.17;100.00;101531.91;5052625;28;20032;-50
2022/07/14 04:22:14;;;;;;;0.70;0.15;;;;;;;9.16;100.00;101530.25;5055965;28;20114;-48
2022/07/14 04:24:41;;;;;;;1.35;0.52;;;;;;;9.14;100.00;101532.22;5064536;28;20108;-48
2022/07/14 04:27:07;;;;;;;2.67;0.10;;;;;;;9.16;100.00;101532.91;5061492;28;20025;-48
2022/07/14 04:29:32;;;;;;;3.65;0.10;;;;;;;9.19;100.00;101534.41;5038962;28;20029;-47
2022/07/14 04:31:58;;;;;;;1.23;0.65;;;;;;;9.19;100.00;101523.81;5063272;28;20033;-49
2022/07/14 04:34:23;;;;;;;0.10;0.10;;;;;;;9.20;100.00;101520.19;5057865;28;20366;-49
2022/07/14 04:36:48;;;;;;;1.85;0.35;;;;;;;9.22;100.00;101523.50;5060614;28;20108;-50
2022/07/14 04:39:14;;;;;;;2.40;0.20;;;;;;;9.23;100.00;101519.84;5059324;28;20037;-52
2022/07/14 04:41:39;;;;;;;2.85;0.30;;;;;;;9.22;100.00;101517.38;5051326;28;20105;-51
2022/07/14 04:44:04;;;;;;;3.03;0.13;;;;;;;9.19;100.00;101529.13;5064041;28;20044;-51
2022/07/14 04:46:30;;;;;;;0.35;0.25;;;;;;;9.14;100.00;101519.00;5063865;28;20024;-52
2022/07/14 04:54:24;;;;;;;2.03;0.20;;;;;;;9.12;100.00;101513.03;5056199;28;20099;-48
2022/07/14 04:56:49;;;;;;;5.60;1.95;;;;;;;9.16;100.00;101508.22;5064336;28;20039;-49
2022/07/14 04:59:15;;;;;;;3.17;0.13;;;;;;;9.17;100.00;101513.38;5060254;28;20036;-50
2022/07/14 05:01:40;;;;;;;1.95;0.20;;;;;;;9.20;100.00;101506.13;5057677;28;20033;-48
2022/07/14 05:04:05;;;;;;;0.10;0.03;;;;;;;9.20;100.00;101504.31;5058041;28;20028;-50
2022/07/14 05:06:31;;;;;;;1.10;0.38;;;;;;;9.23;100.00;101503.16;5064328;28;20032;-50
2022/07/14 05:08:56;;;;;;;0.38;0.15;;;;;;;9.27;100.00;101502.69;5058361;28;20029;-49
2022/07/14 05:11:22;;;;;;;3.83;1.10;;;;;;;9.30;100.00;101502.38;5057318;28;20033;-48
2022/07/14 05:13:47;;;;;;;1.08;0.50;;;;;;;9.34;100.00;101501.06;5059568;28;20033;-50
2022/07/14 05:16:12;;;;;;;0.65;0.38;;;;;;;9.37;100.00;101507.84;5058965;28;20503;-51
2022/07/14 05:18:37;;;;;;;2.47;0.00;;;;;;;9.50;100.00;101505.63;5060413;28;20033;-49
2022/07/14 05:21:03;;;;;;;1.55;0.63;;;;;;;9.64;100.00;101509.47;5052702;28;20375;-50
2022/07/14 05:23:28;;;;;;;2.22;0.00;;;;;;;9.69;100.00;101503.69;5056521;28;20058;-52
2022/07/14 05:25:54;;;;;;;3.33;0.17;;;;;;;9.71;100.00;101507.03;5060997;28;20132;-49
2022/07/14 05:28:20;;;;;;;3.90;1.00;;;;;;;9.83;100.00;101511.00;5064730;28;20044;-51
2022/07/14 05:30:45;;;;;;;0.20;0.13;;;;;;;10.00;100.00;101514.56;5066380;28;20048;-49
2022/07/14 05:33:10;;;;;;;2.00;0.20;;;;;;;10.08;100.00;101516.41;5048121;28;20033;-49
2022/07/14 05:35:36;;;;;;;4.10;0.20;;;;;;;10.12;100.00;101513.25;5058229;28;20024;-49
2022/07/14 05:38:01;;;;;;;6.43;0.40;;;;;;;10.23;100.00;101512.94;5056312;28;20509;-51
2022/07/14 05:40:27;;;;;;;1.05;0.50;;;;;;;10.48;100.00;101516.47;5051876;28;20056;-52
2022/07/14 05:42:52;;;;;;;2.13;0.47;;;;;;;10.70;100.00;101525.59;5055979;28;20032;-48
2022/07/14 05:45:17;;;;;;;0.10;0.10;;;;;;;10.78;100.00;101516.78;5057075;28;20413;-49
2022/07/14 05:47:43;;;;;;;2.55;0.30;;;;;;;10.86;100.00;101521.28;5058315;28;20465;-48
2022/07/14 05:50:09;;;;;;;1.70;0.10;;;;;;;10.96;100.00;101527.22;5057467;28;20071;-52
2022/07/14 05:52:34;;;;;;;6.53;0.40;;;;;;;11.05;100.00;101514.78;5052835;28;20256;-48
2022/07/14 05:55:00;;;;;;;4.88;0.17;;;;;;;11.31;100.00;101522.53;5053436;28;20021;-49
2022/07/14 05:57:26;;;;;;;1.27;0.70;;;;;;;11.67;100.00;101522.91;5065734;28;20103;-50
2022/07/14 05:59:52;;;;;;;2.95;0.68;;;;;;;11.75;100.00;101514.06;5051586;28;20526;-48
2022/07/14 06:02:17;;;;;;;3.38;0.30;;;;;;;11.92;100.00;101523.63;5059290;28;20481;-53
2022/07/14 06:04:42;;;;;;;1.25;0.20;;;;;;;11.98;100.00;101519.47;5035389;28;20040;-54
2022/07/14 06:07:09;;;;;;;3.10;0.77;;;;;;;12.09;100.00;101518.22;5063972;28;20052;-53
2022/07/14 06:09:36;;;;;;;1.20;0.30;;;;;;;12.13;100.00;101522.16;5054934;28;20488;-49
2022/07/14 06:12:04;;;;;;;3.10;0.25;;;;;;;12.34;100.00;101524.19;5051696;28;20108;-51
2022/07/14 06:14:31;;;;;;;2.30;0.40;;;;;;;12.38;100.00;101518.34;5061586;28;20031;-52
2022/07/14 06:16:56;;;;;;;2.03;0.03;;;;;;;12.44;100.00;101530.94;5056839;28;20025;-48
2022/07/14 06:19:22;;;;;;;5.82;0.30;;;;;;;12.41;100.00;101527.81;5057037;28;20480;-49
2022/07/14 06:21:47;;;;;;;1.70;0.30;;;;;;;12.41;100.00;101527.81;5051595;28;20036;-51
2022/07/14 06:24:12;;;;;;;4.47;0.45;;;;;;;12.37;100.00;101527.34;5047664;28;20032;-51
2022/07/14 06:26:38;;;;;;;1.67;0.35;;;;;;;12.42;100.00;101527.63;5051134;28;20029;-50
2022/07/14 06:29:03;;;;;;;1.27;1.02;;;;;;;12.59;100.00;101530.97;5045010;28;20036;-49
2022/07/14 06:31:33;;;;;;;4.25;0.30;;;;;;;13.01;100.00;101540.28;5054618;28;20462;-48
2022/07/14 06:33:59;;;;;;;1.95;0.20;;;;;;;13.24;100.00;101523.41;5034547;28;20060;-52
2022/07/14 06:36:24;;;;;;;1.45;0.13;;;;;;;13.29;100.00;101532.53;5055120;28;20024;-52
2022/07/14 06:38:50;;;;;;;1.73;0.28;;;;;;;13.34;100.00;101529.31;5052404;28;20028;-51
2022/07/14 06:41:15;;;;;;;4.95;0.20;;;;;;;13.38;100.00;101527.94;5053733;28;20606;-50
2022/07/14 06:43:40;;;;;;;4.45;1.50;;;;;;;13.45;100.00;101528.88;5055854;28;20440;-56
2022/07/14 06:46:07;;;;;;;4.07;0.38;;;;;;;13.59;100.00;101532.53;5051664;28;20031;-52
2022/07/14 06:48:32;;;;;;;0.10;0.10;;;;;;;13.64;100.00;101538.13;5045339;28;20029;-54
2022/07/14 06:51:03;;;;;;;1.75;0.05;;;;;;;13.72;100.00;101530.03;5046648;28;20128;-54
2022/07/14 06:53:28;;;;;;;1.40;0.20;;;;;;;13.80;100.00;101536.25;5048391;28;20586;-55
2022/07/14 06:55:54;;;;;;;0.57;0.35;;;;;;;13.90;100.00;101531.47;5044109;28;20500;-52
2022/07/14 06:58:19;;;;;;;2.90;2.05;;;;;;;14.02;100.00;101535.31;5046387;28;20024;-52
2022/07/14 07:00:44;;;;;;;6.25;0.80;;;;;;;14.14;100.00;101538.28;5047769;28;20036;-46
2022/07/14 07:03:11;;;;;;;16.13;1.70;;;;;;;14.33;100.00;101540.34;5051497;28;20044;-45
2022/07/14 07:08:23;;;;;;;1.73;0.55;;;;;;;14.59;100.00;101531.81;5047861;28;20381;-54
2022/07/14 07:10:49;;;;;;;2.85;0.22;;;;;;;14.72;100.00;101536.44;5050685;28;20028;-55
2022/07/14 07:13:14;;;;;;;3.17;0.03;;;;;;;14.90;100.00;101533.28;5052125;28;20078;-53
2022/07/14 07:15:40;;;;;;;2.45;0.10;;;;;;;15.11;100.00;101535.09;5049944;28;20021;-52
2022/07/14 07:18:06;;;;;;;5.97;0.20;;;;;;;15.28;100.00;101535.59;5057781;28;20052;-52
2022/07/14 07:20:35;;;;;;;2.70;0.10;;;;;;;15.35;100.00;101525.78;5056489;28;20040;-47
2022/07/14 07:23:02;;;;;;;1.50;0.55;;;;;;;15.32;100.00;101525.34;5058097;28;20025;-49
2022/07/14 07:25:27;;;;;;;1.63;0.38;;;;;;;15.30;100.00;101522.03;5060400;28;20044;-51
2022/07/14 07:27:53;;;;;;;0.30;0.10;;;;;;;15.29;100.00;101518.56;5048178;28;20117;-45
2022/07/14 07:30:18;;;;;;;0.90;0.10;;;;;;;15.40;100.00;101522.50;5049115;28;20426;-47
2022/07/14 07:32:46;;;;;;;1.27;0.13;;;;;;;15.56;100.00;101522.16;5053763;28;20025;-47
2022/07/14 07:35:12;;;;;;;0.93;0.57;;;;;;;15.70;100.00;101523.09;5052135;28;20161;-49
2022/07/14 07:37:37;;;;;;;1.38;0.22;;;;;;;15.80;100.00;101534.25;5045857;28;20033;-52
2022/07/14 07:40:04;;;;;;;1.30;0.10;;;;;;;15.92;100.00;101521.94;5054715;28;20465;-53
2022/07/14 07:42:29;;;;;;;1.55;0.17;;;;;;;16.13;100.00;101526.34;5051803;28;20036;-51
2022/07/14 07:44:55;;;;;;;0.88;0.20;;;;;;;16.27;100.00;101521.81;5057859;28;20017;-48
2022/07/14 07:47:23;;;;;;;0.85;0.05;;;;;;;16.40;100.00;101520.19;5057683;28;20495;-52
2022/07/14 07:49:48;;;;;;;0.40;0.10;;;;;;;16.52;100.00;101523.91;5051270;28;20350;-45
2022/07/14 07:52:13;;;;;;;1.08;0.30;;;;;;;16.48;100.00;101520.00;5063441;28;20032;-51
2022/07/14 07:54:39;;;;;;;1.35;0.65;;;;;;;16.66;100.00;101524.75;5055632;28;20035;-52
2022/07/14 07:57:05;;;;;;;1.08;0.10;;;;;;;16.81;100.00;101524.56;5031671;28;20017;-49
2022/07/14 07:59:30;;;;;;;3.72;0.60;;;;;;;16.95;100.00;101518.16;5057358;28;20276;-52
2022/07/14 08:01:56;;;;;;;3.45;0.30;;;;;;;17.00;100.00;101524.53;5055893;28;20031;-49
2022/07/14 08:04:22;;;;;;;2.50;0.10;;;;;;;16.93;100.00;101514.88;5052357;28;20029;-49
2022/07/14 08:06:47;;;;;;;4.60;0.10;;;;;;;17.02;100.00;101502.09;5052157;28;20225;-55
2022/07/14 08:09:13;;;;;;;1.77;0.10;;;;;;;17.13;100.00;101502.25;5055143;28;20094;-48
2022/07/14 08:11:40;;;;;;;1.92;0.10;;;;;;;17.15;100.00;101494.84;5047310;28;20070;-50
2022/07/14 08:14:47;;;;;;;1.27;0.15;;;;;;;17.38;100.00;101499.72;5057567;28;20041;-54
2022/07/14 08:16:52;;;;;;;1.90;0.52;;;;;;;17.53;100.00;101491.44;5046038;28;20055;-49
2022/07/14 08:19:17;;;;;;;0.40;0.00;;;;;;;17.66;100.00;101490.56;5055148;28;20114;-51
2022/07/14 08:21:42;;;;;;;3.72;0.20;;;;;;;17.92;100.00;101495.00;5055286;28;20029;-60
2022/07/14 08:24:08;;;;;;;2.05;0.17;;;;;;;18.09;100.00;101496.09;5041501;28;20093;-60
2022/07/14 08:26:33;;;;;;;0.43;0.10;;;;;;;18.24;100.00;101492.31;5057418;28;20028;-51
2022/07/14 08:28:59;;;;;;;12.48;0.30;;;;;;;18.42;100.00;101494.25;5054906;28;20094;-50
2022/07/14 08:31:24;;;;;;;0.10;0.10;;;;;;;18.57;100.00;101496.63;5048489;28;20500;-52
2022/07/14 08:33:49;;;;;;;2.50;0.38;;;;;;;18.54;100.00;101495.19;5068721;28;20115;-54
2022/07/14 08:36:15;;;;;;;4.80;0.00;;;;;;;18.47;100.00;101495.22;5067584;28;20410;-59
2022/07/14 08:38:40;;;;;;;0.28;0.10;;;;;;;18.38;100.00;101491.19;5035958;28;20028;-48
2022/07/14 08:41:07;;;;;;;2.92;0.10;;;;;;;18.49;100.00;101498.53;5053545;28;20334;-56
2022/07/14 08:43:34;;;;;;;0.47;0.45;;;;;;;18.60;100.00;101498.84;5053305;28;20391;-54
2022/07/14 08:46:03;;;;;;;3.35;0.20;;;;;;;18.70;100.00;101496.50;5058451;28;20041;-53
2022/07/14 08:48:29;;;;;;;8.90;0.55;;;;;;;18.84;100.00;101487.28;5061122;28;20174;-56
2022/07/14 08:50:56;;;;;;;0.40;0.10;;;;;;;19.00;100.00;101503.88;5057100;28;20115;-48
2022/07/14 08:53:23;;;;;;;0.32;0.30;;;;;;;18.89;100.00;101490.13;5061006;28;20035;-49
2022/07/14 08:55:49;;;;;;;1.35;0.00;;;;;;;19.13;100.00;101490.34;5060572;28;20051;-55
2022/07/14 08:58:14;;;;;;;0.95;0.20;;;;;;;19.33;100.00;101476.63;5054700;28;20037;-50
2022/07/14 09:00:40;;;;;;;0.55;0.00;;;;;;;19.43;100.00;101476.94;5050510;28;20047;-53
2022/07/14 09:03:05;;;;;;;0.95;0.00;;;;;;;19.69;100.00;101478.50;5058108;28;20451;-51
2022/07/14 09:05:31;;;;;;;2.47;0.00;;;;;;;19.69;100.00;101483.88;5060320;28;20028;-48
2022/07/14 09:07:57;;;;;;;0.20;0.10;;;;;;;19.83;100.00;101479.16;5057728;28;20660;-53
2022/07/14 09:10:25;;;;;;;1.27;0.00;;;;;;;20.02;100.00;101480.72;5056448;28;20016;-47
2022/07/14 09:12:51;;;;;;;0.90;0.05;;;;;;;19.87;100.00;101474.13;5053019;28;20119;-53
2022/07/14 09:18:12;;;;;;;1.05;0.65;;;;;;;19.76;100.00;101473.03;5058023;28;20036;-51
2022/07/14 09:20:38;;;;;;;0.32;0.00;;;;;;;19.78;99.10;101474.44;5053443;28;20477;-56
2022/07/14 09:23:04;;;;;;;0.10;0.00;;;;;;;19.85;99.31;101476.22;5055995;28;20032;-54
2022/07/14 09:25:32;;;;;;;0.10;0.00;;;;;;;19.90;100.00;101484.44;5063185;28;20032;-47
2022/07/14 09:27:57;;;;;;;2.10;0.20;;;;;;;19.82;100.00;101477.50;5058759;28;20499;-51
2022/07/14 09:30:25;;;;;;;0.00;0.00;;;;;;;19.82;100.00;101467.53;5037277;28;20068;-55
2022/07/14 09:32:56;;;;;;;0.28;0.08;;;;;;;20.01;100.00;101475.59;5056306;28;20028;-51
2022/07/14 09:35:42;;;;;;;0.47;0.00;;;;;;;20.21;96.33;101470.72;5055297;28;20028;-48
2022/07/14 09:38:20;;;;;;;0.63;0.17;;;;;;;20.51;96.89;101479.78;5062414;28;20044;-54
2022/07/14 09:40:48;;;;;;;0.05;0.00;;;;;;;20.80;95.08;101476.19;5061416;28;20075;-49
2022/07/14 09:43:16;;;;;;;1.05;0.10;;;;;;;21.07;96.03;101473.00;5042822;28;20047;-53
2022/07/14 09:45:49;;;;;;;1.70;0.03;;;;;;;21.08;94.81;101470.06;5064763;28;20047;-57
2022/07/14 09:48:21;;;;;;;0.15;0.10;;;;;;;20.76;91.12;101482.28;5040985;28;20063;-50
2022/07/14 09:50:56;;;;;;;1.05;0.30;;;;;;;20.39;93.82;101477.06;5057196;28;20051;-49
2022/07/14 09:53:33;;;;;;;1.85;0.68;;;;;;;20.09;96.01;101467.19;5043385;28;20032;-58
2022/07/14 09:56:04;;;;;;;2.42;0.00;;;;;;;20.05;96.32;101479.44;5054941;28;20351;-54
2022/07/14 09:58:32;;;;;;;0.15;0.00;;;;;;;20.29;96.41;101479.50;5049782;28;20096;-52
2022/07/14 10:01:07;;;;;;;2.55;0.30;;;;;;;20.47;96.03;101474.03;5054833;28;20028;-55
2022/07/14 10:03:35;;;;;;;0.35;0.03;;;;;;;20.41;95.40;101488.44;5064054;28;20060;-46
2022/07/14 10:06:02;;;;;;;0.22;0.00;;;;;;;20.26;94.39;101481.63;5061220;28;20100;-49
2022/07/14 10:08:29;;;;;;;1.75;0.03;;;;;;;20.18;94.72;101481.94;5049247;28;20218;-53
2022/07/14 10:10:57;;;;;;;1.15;0.10;;;;;;;20.05;94.63;101484.84;5059412;28;20427;-50
2022/07/14 10:13:24;;;;;;;3.55;0.00;;;;;;;19.95;94.42;101489.94;5060883;28;20048;-56
2022/07/14 10:15:50;;;;;;;2.00;0.17;;;;;;;19.97;95.33;101485.16;5063375;28;20047;-52
2022/07/14 10:18:16;;;;;;;2.80;0.10;;;;;;;20.12;95.23;101495.50;5054902;28;20052;-48
2022/07/14 10:20:46;;;;;;;1.80;0.00;;;;;;;19.97;94.06;101487.84;5049361;28;20025;-48
2022/07/14 10:23:12;;;;;;;1.48;0.10;;;;;;;20.00;93.59;101492.78;5038837;28;20161;-52
2022/07/14 10:25:39;;;;;;;1.73;0.22;;;;;;;20.11;94.05;101485.78;5063817;28;20579;-53
2022/07/14 10:28:05;;;;;;;1.85;0.10;;;;;;;20.29;94.07;101485.72;5046798;28;20052;-53
2022/07/14 10:31:08;;;;;;;2.15;0.52;;;;;;;20.52;93.60;101487.59;5061804;28;20064;-49
2022/07/14 10:33:52;;;;;;;3.05;0.10;;;;;;;20.73;92.73;101497.06;5024647;28;20099;-51
2022/07/14 10:36:22;;;;;;;0.10;0.00;;;;;;;20.97;91.45;101481.69;5055772;28;20040;-55
2022/07/14 10:39:01;;;;;;;1.30;0.30;;;;;;;20.96;90.33;101488.16;5050078;28;20468;-53
2022/07/14 10:41:54;;;;;;;1.13;0.00;;;;;;;20.59;90.43;101490.25;5034426;28;20053;-57
2022/07/14 10:44:20;;;;;;;2.08;0.00;;;;;;;20.76;91.96;101495.75;5063019;28;20480;-51
2022/07/14 10:46:47;;;;;;;3.90;0.40;;;;;;;20.95;91.55;101483.78;5066107;28;20037;-57
2022/07/14 10:49:15;;;;;;;0.00;0.00;;;;;;;21.34;90.98;101492.16;5062014;28;20040;-53
2022/07/14 10:51:47;;;;;;;0.73;0.17;;;;;;;21.80;89.03;101501.22;5061022;28;20047;-50
2022/07/14 10:54:38;;;;;;;0.20;0.00;;;;;;;21.72;86.92;101504.31;5047962;28;20086;-56
2022/07/14 10:57:10;;;;;;;0.13;0.03;;;;;;;21.71;85.50;101492.69;5032940;28;20142;-51
2022/07/14 10:59:36;;;;;;;0.25;0.10;;;;;;;22.02;89.78;101495.13;5056126;28;20125;-51
2022/07/14 11:02:11;;;;;;;0.10;0.00;;;;;;;22.43;82.28;101497.50;5032743;28;20043;-51
2022/07/14 11:05:02;;;;;;;8.30;0.00;;;;;;;22.45;84.48;101493.72;5057072;28;20071;-62
2022/07/14 11:07:38;;;;;;;0.50;0.10;;;;;;;22.11;86.25;101489.09;5056963;28;20461;-52
2022/07/14 11:10:25;;;;;;;1.20;0.20;;;;;;;22.04;87.38;101487.59;5051981;28;20274;-53
2022/07/14 11:12:59;;;;;;;3.63;0.08;;;;;;;21.57;86.02;101494.03;5044432;28;20494;-52
2022/07/14 11:15:49;;;;;;;0.73;0.00;;;;;;;21.92;89.50;101485.78;5063076;28;20029;-52
2022/07/14 11:18:18;;;;;;;3.45;0.73;;;;;;;22.28;84.25;101493.72;5051985;28;20025;-45
2022/07/14 11:20:55;;;;;;;2.22;0.20;;;;;;;22.33;84.42;101497.34;5058528;28;20024;-55
2022/07/14 11:23:35;;;;;;;2.47;0.15;;;;;;;22.19;85.16;101494.13;5050761;28;20124;-48
2022/07/14 11:26:06;;;;;;;0.93;0.23;;;;;;;21.91;85.80;101492.22;5045664;28;20063;-54
2022/07/14 11:28:31;;;;;;;1.27;0.13;;;;;;;21.97;85.67;101487.75;5056774;28;20076;-54
2022/07/14 11:31:14;;;;;;;1.25;0.00;;;;;;;22.18;84.81;101488.94;5053537;28;20852;-51
2022/07/14 11:36:31;;;;;;;2.10;0.30;;;;;;;22.46;86.48;101503.47;5060860;28;20032;-47
2022/07/14 11:39:15;;;;;;;0.68;0.43;;;;;;;23.13;82.19;101491.75;5051597;28;20036;-59